Terminal Aerodrome Forecast
Issued by NWS Shreveport, LA

Home | Current Version | Previous Version | Text Only | Print | Product List | Glossary On
Versions: 1 2 3 4 5 6 7 8 9 10 11 12 13 14 15 16
834
FTUS44 KSHV 210822 AAB
TAFGGG
TAF AMD
KGGG 210822Z 2108/2206 00000KT P6SM SCT003 BKN120 BKN250
      TEMPO 2109/2113 3SM BR BKN003
     FM211300 VRB03KT P6SM SCT012 SCT250
     FM211600 VRB03KT P6SM SCT030 SCT250
     FM211800 VRB04KT P6SM VCTS BKN040CB BKN250
     FM220100 VRB03KT P6SM SCT030 SCT250=

USA.gov is the U.S. government's official web portal to all federal, state and local government web resources and services.